Oakley, CA (94561)

4:54 PM PDT on September 02, 2014 (GMT -0700)
Oakley PC | Change Station
CLOSE
Current Station
Personal Weather Station
Location: Oakley, CA
Elevation: 0 ft
Nearby Weather Stations

Elev 0 ft 37.98 °N, 121.71 °W | Updated 8 minutes ago

Clear
Clear
91.0 °F
Feels Like 89 °F
N
4.5
Wind Variable Wind from SW
Gusts 6.9 mph

Today
High -- | Low -- °F
--% Chance of Precip.
Yesterday
High -- | Low -- °F
Precip. -- in
6:37 AM 7:34 PM
First Quarter, 56% visible
Pressure 29.72 in
Visibility 10.0 miles
Clouds Clear
Heat Index 89 °F
Dew Point 54 °F
Humidity 28%
Rainfall 0.00 in
Snow Depth Not available.
UV 1.0 out of 12
Pollen 8.60 out of 12
Air Quality Not available.
Flu Activity Not available.
METAR KCCR 022253Z COR 25009KT 10SM CLR 27/12 A2976 RMK AO2 SLP063 T02670117

More Conditions Fewer Conditions

Pressure 29.72 in
Visibility 10.0 miles
Clouds Clear
Heat Index 89 °F
Dew Point 54 °F
Humidity 28%
Rainfall 0.00 in
Snow Depth Not available.
UV 1.0 out of 12
Pollen 8.60 out of 12
Air Quality Not available.
Flu Activity Not available.
METAR KCCR 022253Z COR 25009KT 10SM CLR 27/12 A2976 RMK AO2 SLP063 T02670117

More Conditions Fewer Conditions

10-Day Weather Forecast

Almanac

Astronomy

Sep. 02, 2014 Rise Set
Actual Time 6:37 AM PDT 7:34 PM PDT
Civil Twilight 6:10 AM PDT 8:01 PM PDT
Nautical Twilight 5:38 AM PDT 8:33 PM PDT
Astronomical Twilight 5:05 AM PDT 9:06 PM PDT
Moon 2:20 PM PDT No Moon Set
Length of Visible Light 13h 50m
Length of Day
12h 57m
Tomorrow will be 2m 22s shorter.
First Quarter, 56% of the Moon is Illuminated
Today
First Quarter
Sep 8
Full
Sep 15
Last Quarter
Sep 24
New
Oct 1
First Quarter

Today's Extremes

State Highs State Lows

Community

WunderPhotos

Upload Photos

1,749,799 photos uploaded!

Nearby

Air Quality

  Air Quality AQ Index Pollutant
Yesterday Moderate
PM2.5
Yesterday Good
OZONE
Tuesday Good
OZONE
Wednesday Good
OZONE
Thursday Good
OZONE
Friday Good
OZONE
Saturday Good
OZONE
Sunday Good
OZONE

Snow Depth

Station Depth Elevation
CSS Lab 0 in 6900 ft
Leavitt Meadows 1 in 7200 ft
Summit Meadow 0 in 9122 ft
Adin Mountain 0 in 6200 ft
Cedar Pass 0 in 7100 ft

Earthquake Activity

City Distance Mag. Time & Date
Cobb, California 81 miles 2.5 12:00 PM PDT
2014-09-02
Yountville, California 45 miles 2.6 1:15 PM PDT
2014-09-01
Gilroy, California 71 miles 3.5 9:10 AM PDT
2014-09-01
Green Valley, California 30 miles 2.5 6:37 AM PDT
2014-08-31
Minimum magnitude displayed is 2.5.

Coastal Water Temperatures

Place Temperature
San Francisco, CA 64.9 °F
Richmond, CA 69.1 °F
Port Chicago, CA 72.0 °F

Nearby Weather Stations